sensor_id;sensor_type;location;lat;lon;timestamp;temperature;humidity
35129;DHT22;21301;43.626;10.580;2022-08-11T00:00:06;25.90;87.20
35129;DHT22;21301;43.626;10.580;2022-08-11T00:02:47;25.70;87.80
35129;DHT22;21301;43.626;10.580;2022-08-11T00:05:17;25.80;88.00
35129;DHT22;21301;43.626;10.580;2022-08-11T00:07:48;25.70;87.90
35129;DHT22;21301;43.626;10.580;2022-08-11T00:10:21;25.70;88.00
35129;DHT22;21301;43.626;10.580;2022-08-11T00:13:02;25.60;88.20
35129;DHT22;21301;43.626;10.580;2022-08-11T00:15:40;25.60;88.70
35129;DHT22;21301;43.626;10.580;2022-08-11T00:18:07;25.60;88.70
35129;DHT22;21301;43.626;10.580;2022-08-11T00:20:37;25.50;88.30
35129;DHT22;21301;43.626;10.580;2022-08-11T00:23:15;25.60;88.60
35129;DHT22;21301;43.626;10.580;2022-08-11T00:25:47;25.50;88.60
35129;DHT22;21301;43.626;10.580;2022-08-11T00:28:40;25.60;88.50
35129;DHT22;21301;43.626;10.580;2022-08-11T00:31:08;25.60;88.80
35129;DHT22;21301;43.626;10.580;2022-08-11T00:33:41;25.50;88.80
35129;DHT22;21301;43.626;10.580;2022-08-11T00:36:09;25.40;88.90
35129;DHT22;21301;43.626;10.580;2022-08-11T00:38:38;25.40;89.10
35129;DHT22;21301;43.626;10.580;2022-08-11T01:00:02;25.10;90.40
35129;DHT22;21301;43.626;10.580;2022-08-11T01:16:40;25.10;90.40
35129;DHT22;21301;43.626;10.580;2022-08-11T01:48:21;24.90;90.90
35129;DHT22;21301;43.626;10.580;2022-08-11T02:08:19;24.50;91.10
35129;DHT22;21301;43.626;10.580;2022-08-11T02:11:08;24.50;91.10
35129;DHT22;21301;43.626;10.580;2022-08-11T02:19:51;24.40;91.60
35129;DHT22;21301;43.626;10.580;2022-08-11T02:23:03;24.40;91.50
35129;DHT22;21301;43.626;10.580;2022-08-11T02:25:49;24.30;91.70
35129;DHT22;21301;43.626;10.580;2022-08-11T02:31:15;24.30;91.40
35129;DHT22;21301;43.626;10.580;2022-08-11T02:34:34;24.40;91.70
35129;DHT22;21301;43.626;10.580;2022-08-11T02:37:35;24.30;91.70
35129;DHT22;21301;43.626;10.580;2022-08-11T02:53:38;24.30;91.60
35129;DHT22;21301;43.626;10.580;2022-08-11T02:56:41;24.30;91.80
35129;DHT22;21301;43.626;10.580;2022-08-11T03:02:13;24.40;91.50
35129;DHT22;21301;43.626;10.580;2022-08-11T03:16:12;24.50;91.80
35129;DHT22;21301;43.626;10.580;2022-08-11T03:19:10;24.50;91.90
35129;DHT22;21301;43.626;10.580;2022-08-11T03:21:56;24.60;91.90
35129;DHT22;21301;43.626;10.580;2022-08-11T03:24:35;24.60;92.10
35129;DHT22;21301;43.626;10.580;2022-08-11T03:47:33;25.10;92.80
35129;DHT22;21301;43.626;10.580;2022-08-11T03:53:09;25.10;93.10
35129;DHT22;21301;43.626;10.580;2022-08-11T03:58:34;25.10;93.20
35129;DHT22;21301;43.626;10.580;2022-08-11T04:12:27;25.00;94.40
35129;DHT22;21301;43.626;10.580;2022-08-11T04:21:56;24.90;95.10
35129;DHT22;21301;43.626;10.580;2022-08-11T04:30:26;24.90;95.50
35129;DHT22;21301;43.626;10.580;2022-08-11T04:33:02;24.90;95.30
35129;DHT22;21301;43.626;10.580;2022-08-11T04:54:30;25.10;95.10
35129;DHT22;21301;43.626;10.580;2022-08-11T04:57:45;25.30;95.30
35129;DHT22;21301;43.626;10.580;2022-08-11T05:03:45;25.30;95.20
35129;DHT22;21301;43.626;10.580;2022-08-11T05:17:14;25.20;95.00
35129;DHT22;21301;43.626;10.580;2022-08-11T05:19:59;25.30;95.20
35129;DHT22;21301;43.626;10.580;2022-08-11T05:22:49;25.40;95.00
35129;DHT22;21301;43.626;10.580;2022-08-11T05:25:35;25.40;95.10
35129;DHT22;21301;43.626;10.580;2022-08-11T05:28:39;25.50;95.00
35129;DHT22;21301;43.626;10.580;2022-08-11T05:31:32;25.50;94.80
35129;DHT22;21301;43.626;10.580;2022-08-11T05:34:32;25.50;94.80
35129;DHT22;21301;43.626;10.580;2022-08-11T05:40:12;25.50;94.90
35129;DHT22;21301;43.626;10.580;2022-08-11T05:43:00;25.60;94.90
35129;DHT22;21301;43.626;10.580;2022-08-11T05:45:58;25.60;94.70
35129;DHT22;21301;43.626;10.580;2022-08-11T05:48:44;25.70;94.50
35129;DHT22;21301;43.626;10.580;2022-08-11T05:51:42;25.70;94.50
35129;DHT22;21301;43.626;10.580;2022-08-11T05:54:28;25.80;94.20
35129;DHT22;21301;43.626;10.580;2022-08-11T05:57:21;26.00;93.90
35129;DHT22;21301;43.626;10.580;2022-08-11T05:59:49;26.30;93.50
35129;DHT22;21301;43.626;10.580;2022-08-11T06:02:15;26.60;93.20
35129;DHT22;21301;43.626;10.580;2022-08-11T06:04:42;26.70;93.10
35129;DHT22;21301;43.626;10.580;2022-08-11T06:07:10;26.90;92.80
35129;DHT22;21301;43.626;10.580;2022-08-11T06:09:46;27.00;92.40
35129;DHT22;21301;43.626;10.580;2022-08-11T06:14:55;27.30;92.10
35129;DHT22;21301;43.626;10.580;2022-08-11T06:17:24;27.40;92.00
35129;DHT22;21301;43.626;10.580;2022-08-11T06:19:51;27.70;92.00
35129;DHT22;21301;43.626;10.580;2022-08-11T06:22:24;27.80;91.60
35129;DHT22;21301;43.626;10.580;2022-08-11T06:24:55;27.80;91.60
35129;DHT22;21301;43.626;10.580;2022-08-11T06:27:22;28.00;91.50
35129;DHT22;21301;43.626;10.580;2022-08-11T06:29:51;27.90;91.30
35129;DHT22;21301;43.626;10.580;2022-08-11T06:32:17;27.80;91.10
35129;DHT22;21301;43.626;10.580;2022-08-11T06:35:02;27.90;91.10
35129;DHT22;21301;43.626;10.580;2022-08-11T06:37:40;27.90;90.70
35129;DHT22;21301;43.626;10.580;2022-08-11T06:43:09;28.00;90.80
35129;DHT22;21301;43.626;10.580;2022-08-11T06:46:02;28.00;90.80
35129;DHT22;21301;43.626;10.580;2022-08-11T06:48:34;28.20;90.60
35129;DHT22;21301;43.626;10.580;2022-08-11T06:51:07;28.30;90.50
35129;DHT22;21301;43.626;10.580;2022-08-11T06:56:06;28.40;90.80
35129;DHT22;21301;43.626;10.580;2022-08-11T06:58:52;28.40;90.60
35129;DHT22;21301;43.626;10.580;2022-08-11T07:04:23;28.40;90.50
35129;DHT22;21301;43.626;10.580;2022-08-11T07:07:13;28.40;90.60
35129;DHT22;21301;43.626;10.580;2022-08-11T07:13:14;28.40;90.40
35129;DHT22;21301;43.626;10.580;2022-08-11T07:15:59;28.40;90.60
35129;DHT22;21301;43.626;10.580;2022-08-11T07:18:28;28.60;90.60
35129;DHT22;21301;43.626;10.580;2022-08-11T07:21:21;28.90;90.40
35129;DHT22;21301;43.626;10.580;2022-08-11T07:24:12;29.00;90.10
35129;DHT22;21301;43.626;10.580;2022-08-11T07:26:58;29.00;90.10
35129;DHT22;21301;43.626;10.580;2022-08-11T07:29:46;28.90;90.10
35129;DHT22;21301;43.626;10.580;2022-08-11T07:32:18;29.10;89.60
35129;DHT22;21301;43.626;10.580;2022-08-11T07:34:51;29.00;88.90
35129;DHT22;21301;43.626;10.580;2022-08-11T07:37:22;28.80;89.60
35129;DHT22;21301;43.626;10.580;2022-08-11T07:39:49;28.80;89.40
35129;DHT22;21301;43.626;10.580;2022-08-11T07:42:21;28.70;89.60
35129;DHT22;21301;43.626;10.580;2022-08-11T07:44:48;28.60;89.70
35129;DHT22;21301;43.626;10.580;2022-08-11T07:47:35;28.50;90.20
35129;DHT22;21301;43.626;10.580;2022-08-11T07:50:20;28.60;89.60
35129;DHT22;21301;43.626;10.580;2022-08-11T07:53:05;28.60;89.80
35129;DHT22;21301;43.626;10.580;2022-08-11T07:55:32;28.70;90.00
35129;DHT22;21301;43.626;10.580;2022-08-11T07:57:59;28.90;89.70
35129;DHT22;21301;43.626;10.580;2022-08-11T08:00:53;29.20;89.30
35129;DHT22;21301;43.626;10.580;2022-08-11T08:03:39;29.30;88.80
35129;DHT22;21301;43.626;10.580;2022-08-11T08:06:25;29.60;88.60
35129;DHT22;21301;43.626;10.580;2022-08-11T08:09:11;29.80;87.70
35129;DHT22;21301;43.626;10.580;2022-08-11T08:11:56;29.90;87.30
35129;DHT22;21301;43.626;10.580;2022-08-11T08:14:42;30.00;87.30
35129;DHT22;21301;43.626;10.580;2022-08-11T08:17:29;30.30;86.80
35129;DHT22;21301;43.626;10.580;2022-08-11T08:20:16;30.30;86.20
35129;DHT22;21301;43.626;10.580;2022-08-11T08:22:52;30.40;85.10
35129;DHT22;21301;43.626;10.580;2022-08-11T08:25:41;30.40;85.50
35129;DHT22;21301;43.626;10.580;2022-08-11T08:28:15;30.30;84.60
35129;DHT22;21301;43.626;10.580;2022-08-11T08:30:43;30.30;84.30
35129;DHT22;21301;43.626;10.580;2022-08-11T08:33:26;30.30;84.60
35129;DHT22;21301;43.626;10.580;2022-08-11T08:35:58;30.70;83.50
35129;DHT22;21301;43.626;10.580;2022-08-11T08:38:43;30.60;84.00
35129;DHT22;21301;43.626;10.580;2022-08-11T08:41:12;30.70;83.80
35129;DHT22;21301;43.626;10.580;2022-08-11T08:43:39;30.80;84.10
35129;DHT22;21301;43.626;10.580;2022-08-11T08:46:08;30.80;84.00
35129;DHT22;21301;43.626;10.580;2022-08-11T08:48:35;30.90;83.60
35129;DHT22;21301;43.626;10.580;2022-08-11T08:51:04;30.60;83.80
35129;DHT22;21301;43.626;10.580;2022-08-11T08:53:54;30.70;83.70
35129;DHT22;21301;43.626;10.580;2022-08-11T08:56:27;30.90;83.40
35129;DHT22;21301;43.626;10.580;2022-08-11T08:58:54;30.70;83.30
35129;DHT22;21301;43.626;10.580;2022-08-11T09:01:21;30.70;83.40
35129;DHT22;21301;43.626;10.580;2022-08-11T09:03:50;30.70;83.90
35129;DHT22;21301;43.626;10.580;2022-08-11T09:06:17;30.70;83.10
35129;DHT22;21301;43.626;10.580;2022-08-11T09:08:44;30.70;83.00
35129;DHT22;21301;43.626;10.580;2022-08-11T09:11:10;30.70;82.90
35129;DHT22;21301;43.626;10.580;2022-08-11T09:13:57;30.70;82.50
35129;DHT22;21301;43.626;10.580;2022-08-11T09:16:24;31.00;82.50
35129;DHT22;21301;43.626;10.580;2022-08-11T09:18:51;31.20;82.20
35129;DHT22;21301;43.626;10.580;2022-08-11T09:21:18;31.40;82.10
35129;DHT22;21301;43.626;10.580;2022-08-11T09:23:49;31.80;82.20
35129;DHT22;21301;43.626;10.580;2022-08-11T09:26:35;31.70;81.60
35129;DHT22;21301;43.626;10.580;2022-08-11T09:29:31;31.70;81.80
35129;DHT22;21301;43.626;10.580;2022-08-11T09:31:58;31.90;80.60
35129;DHT22;21301;43.626;10.580;2022-08-11T09:34:25;32.10;79.10
35129;DHT22;21301;43.626;10.580;2022-08-11T09:36:51;31.90;79.10
35129;DHT22;21301;43.626;10.580;2022-08-11T09:39:37;32.20;78.30
35129;DHT22;21301;43.626;10.580;2022-08-11T09:42:24;32.30;77.40
35129;DHT22;21301;43.626;10.580;2022-08-11T09:45:11;32.00;77.40
35129;DHT22;21301;43.626;10.580;2022-08-11T09:47:37;31.50;77.50
35129;DHT22;21301;43.626;10.580;2022-08-11T09:50:04;31.40;78.60
35129;DHT22;21301;43.626;10.580;2022-08-11T09:52:36;31.50;78.40
35129;DHT22;21301;43.626;10.580;2022-08-11T09:55:03;31.60;77.70
35129;DHT22;21301;43.626;10.580;2022-08-11T09:57:38;31.80;77.90
35129;DHT22;21301;43.626;10.580;2022-08-11T10:00:29;31.90;77.30
35129;DHT22;21301;43.626;10.580;2022-08-11T10:02:56;31.90;77.70
35129;DHT22;21301;43.626;10.580;2022-08-11T10:05:23;32.00;77.60
35129;DHT22;21301;43.626;10.580;2022-08-11T10:08:11;31.90;77.60
35129;DHT22;21301;43.626;10.580;2022-08-11T10:10:38;32.20;77.20
35129;DHT22;21301;43.626;10.580;2022-08-11T10:13:10;32.20;77.60
35129;DHT22;21301;43.626;10.580;2022-08-11T10:15:40;31.90;77.60
35129;DHT22;21301;43.626;10.580;2022-08-11T10:18:17;32.00;78.00
35129;DHT22;21301;43.626;10.580;2022-08-11T10:21:16;31.90;78.10
35129;DHT22;21301;43.626;10.580;2022-08-11T10:23:46;32.10;77.90
35129;DHT22;21301;43.626;10.580;2022-08-11T10:26:31;32.70;77.80
35129;DHT22;21301;43.626;10.580;2022-08-11T10:29:40;32.90;77.60
35129;DHT22;21301;43.626;10.580;2022-08-11T10:32:26;32.80;77.10
35129;DHT22;21301;43.626;10.580;2022-08-11T10:35:11;32.90;77.60
35129;DHT22;21301;43.626;10.580;2022-08-11T10:37:40;33.20;77.10
35129;DHT22;21301;43.626;10.580;2022-08-11T10:40:08;33.00;76.70
35129;DHT22;21301;43.626;10.580;2022-08-11T10:42:36;32.80;76.90
35129;DHT22;21301;43.626;10.580;2022-08-11T10:45:23;32.90;77.00
35129;DHT22;21301;43.626;10.580;2022-08-11T10:48:08;32.70;76.40
35129;DHT22;21301;43.626;10.580;2022-08-11T10:50:36;32.70;76.40
35129;DHT22;21301;43.626;10.580;2022-08-11T10:53:21;32.90;76.40
35129;DHT22;21301;43.626;10.580;2022-08-11T10:56:07;33.00;76.30
35129;DHT22;21301;43.626;10.580;2022-08-11T10:58:53;33.10;75.90
35129;DHT22;21301;43.626;10.580;2022-08-11T11:01:30;33.10;75.80
35129;DHT22;21301;43.626;10.580;2022-08-11T11:04:03;33.10;75.90
35129;DHT22;21301;43.626;10.580;2022-08-11T11:06:37;33.40;75.40
35129;DHT22;21301;43.626;10.580;2022-08-11T11:09:40;33.70;75.50
35129;DHT22;21301;43.626;10.580;2022-08-11T11:12:19;34.10;74.90
35129;DHT22;21301;43.626;10.580;2022-08-11T11:15:06;33.70;75.60
35129;DHT22;21301;43.626;10.580;2022-08-11T11:18:05;34.00;75.80
35129;DHT22;21301;43.626;10.580;2022-08-11T11:23:32;34.10;74.30
35129;DHT22;21301;43.626;10.580;2022-08-11T11:26:13;33.60;75.20
35129;DHT22;21301;43.626;10.580;2022-08-11T11:35:00;33.70;75.00
35129;DHT22;21301;43.626;10.580;2022-08-11T11:37:31;34.20;74.00
35129;DHT22;21301;43.626;10.580;2022-08-11T11:40:00;34.50;74.50
35129;DHT22;21301;43.626;10.580;2022-08-11T11:42:27;34.50;73.60
35129;DHT22;21301;43.626;10.580;2022-08-11T11:44:53;35.00;74.00
35129;DHT22;21301;43.626;10.580;2022-08-11T11:47:19;34.80;74.30
35129;DHT22;21301;43.626;10.580;2022-08-11T11:49:48;34.90;73.80
35129;DHT22;21301;43.626;10.580;2022-08-11T11:52:17;34.60;73.20
35129;DHT22;21301;43.626;10.580;2022-08-11T11:54:45;34.30;73.40
35129;DHT22;21301;43.626;10.580;2022-08-11T11:57:16;34.30;73.30
35129;DHT22;21301;43.626;10.580;2022-08-11T12:00:04;34.20;72.60
35129;DHT22;21301;43.626;10.580;2022-08-11T12:02:49;34.60;72.80
35129;DHT22;21301;43.626;10.580;2022-08-11T12:05:17;34.90;72.90
35129;DHT22;21301;43.626;10.580;2022-08-11T12:07:43;35.40;72.80
35129;DHT22;21301;43.626;10.580;2022-08-11T12:10:29;35.60;72.70
35129;DHT22;21301;43.626;10.580;2022-08-11T12:12:58;35.50;71.80
35129;DHT22;21301;43.626;10.580;2022-08-11T12:15:46;35.60;72.30
35129;DHT22;21301;43.626;10.580;2022-08-11T12:18:13;35.20;72.10
35129;DHT22;21301;43.626;10.580;2022-08-11T12:20:41;35.20;71.60
35129;DHT22;21301;43.626;10.580;2022-08-11T12:23:07;34.80;71.90
35129;DHT22;21301;43.626;10.580;2022-08-11T12:25:52;34.80;72.10
35129;DHT22;21301;43.626;10.580;2022-08-11T12:28:37;34.90;71.80
35129;DHT22;21301;43.626;10.580;2022-08-11T12:31:05;35.10;71.60
35129;DHT22;21301;43.626;10.580;2022-08-11T12:33:35;34.60;71.50
35129;DHT22;21301;43.626;10.580;2022-08-11T12:36:02;35.20;71.90
35129;DHT22;21301;43.626;10.580;2022-08-11T12:38:29;35.10;71.90
35129;DHT22;21301;43.626;10.580;2022-08-11T12:40:56;34.70;71.50
35129;DHT22;21301;43.626;10.580;2022-08-11T12:43:44;34.80;71.90
35129;DHT22;21301;43.626;10.580;2022-08-11T12:46:35;34.70;71.30
35129;DHT22;21301;43.626;10.580;2022-08-11T12:49:12;34.30;71.10
35129;DHT22;21301;43.626;10.580;2022-08-11T12:52:01;34.40;71.40
35129;DHT22;21301;43.626;10.580;2022-08-11T12:54:44;34.20;72.00
35129;DHT22;21301;43.626;10.580;2022-08-11T12:57:17;34.50;71.80
35129;DHT22;21301;43.626;10.580;2022-08-11T13:00:06;35.00;72.00
35129;DHT22;21301;43.626;10.580;2022-08-11T13:02:51;35.60;71.90
35129;DHT22;21301;43.626;10.580;2022-08-11T13:05:37;35.90;71.70
35129;DHT22;21301;43.626;10.580;2022-08-11T13:08:04;36.10;71.40
35129;DHT22;21301;43.626;10.580;2022-08-11T13:10:31;35.90;71.20
35129;DHT22;21301;43.626;10.580;2022-08-11T13:13:17;36.00;71.40
35129;DHT22;21301;43.626;10.580;2022-08-11T13:15:48;35.80;71.40
35129;DHT22;21301;43.626;10.580;2022-08-11T13:18:20;35.50;71.50
35129;DHT22;21301;43.626;10.580;2022-08-11T13:20:54;35.10;70.40
35129;DHT22;21301;43.626;10.580;2022-08-11T13:23:22;34.90;70.10
35129;DHT22;21301;43.626;10.580;2022-08-11T13:25:48;34.70;70.80
35129;DHT22;21301;43.626;10.580;2022-08-11T13:28:17;34.70;70.60
35129;DHT22;21301;43.626;10.580;2022-08-11T13:30:44;34.40;70.80
35129;DHT22;21301;43.626;10.580;2022-08-11T13:33:28;34.40;73.00
35129;DHT22;21301;43.626;10.580;2022-08-11T13:35:55;34.30;73.60
35129;DHT22;21301;43.626;10.580;2022-08-11T13:38:26;34.70;73.50
35129;DHT22;21301;43.626;10.580;2022-08-11T13:40:54;34.90;72.70
35129;DHT22;21301;43.626;10.580;2022-08-11T13:43:21;35.20;72.40
35129;DHT22;21301;43.626;10.580;2022-08-11T13:45:48;35.30;71.70
35129;DHT22;21301;43.626;10.580;2022-08-11T13:48:15;35.50;72.30
35129;DHT22;21301;43.626;10.580;2022-08-11T13:50:42;35.70;72.70
35129;DHT22;21301;43.626;10.580;2022-08-11T13:53:28;35.70;72.40
35129;DHT22;21301;43.626;10.580;2022-08-11T13:55:58;35.90;72.70
35129;DHT22;21301;43.626;10.580;2022-08-11T13:58:26;35.80;72.80
35129;DHT22;21301;43.626;10.580;2022-08-11T14:00:53;35.60;72.40
35129;DHT22;21301;43.626;10.580;2022-08-11T14:03:24;35.30;73.00
35129;DHT22;21301;43.626;10.580;2022-08-11T14:05:53;34.80;73.70
35129;DHT22;21301;43.626;10.580;2022-08-11T14:08:25;34.90;73.80
35129;DHT22;21301;43.626;10.580;2022-08-11T14:10:55;35.30;73.80
35129;DHT22;21301;43.626;10.580;2022-08-11T14:13:44;34.80;73.10
35129;DHT22;21301;43.626;10.580;2022-08-11T14:16:15;34.00;73.70
35129;DHT22;21301;43.626;10.580;2022-08-11T14:18:47;34.30;74.00
35129;DHT22;21301;43.626;10.580;2022-08-11T14:21:17;34.40;73.80
35129;DHT22;21301;43.626;10.580;2022-08-11T14:24:08;34.90;73.60
35129;DHT22;21301;43.626;10.580;2022-08-11T14:26:37;35.10;73.20
35129;DHT22;21301;43.626;10.580;2022-08-11T14:29:10;34.70;73.80
35129;DHT22;21301;43.626;10.580;2022-08-11T14:31:42;34.10;74.90
35129;DHT22;21301;43.626;10.580;2022-08-11T14:34:09;34.00;74.90
35129;DHT22;21301;43.626;10.580;2022-08-11T14:36:39;34.20;74.70
35129;DHT22;21301;43.626;10.580;2022-08-11T14:39:12;34.00;74.70
35129;DHT22;21301;43.626;10.580;2022-08-11T14:41:49;33.80;75.40
35129;DHT22;21301;43.626;10.580;2022-08-11T14:44:35;33.60;76.30
35129;DHT22;21301;43.626;10.580;2022-08-11T14:47:33;33.20;77.00
35129;DHT22;21301;43.626;10.580;2022-08-11T14:49:59;33.00;77.80
35129;DHT22;21301;43.626;10.580;2022-08-11T14:52:29;33.40;78.10
35129;DHT22;21301;43.626;10.580;2022-08-11T14:54:56;33.60;77.90
35129;DHT22;21301;43.626;10.580;2022-08-11T14:57:41;33.30;78.90
35129;DHT22;21301;43.626;10.580;2022-08-11T15:00:09;33.20;78.80
35129;DHT22;21301;43.626;10.580;2022-08-11T15:02:38;33.20;78.50
35129;DHT22;21301;43.626;10.580;2022-08-11T15:05:24;33.30;78.80
35129;DHT22;21301;43.626;10.580;2022-08-11T15:07:53;33.50;78.60
35129;DHT22;21301;43.626;10.580;2022-08-11T15:10:20;33.60;78.20
35129;DHT22;21301;43.626;10.580;2022-08-11T15:12:47;33.60;78.80
35129;DHT22;21301;43.626;10.580;2022-08-11T15:15:13;33.40;80.30
35129;DHT22;21301;43.626;10.580;2022-08-11T15:18:01;33.70;80.60
35129;DHT22;21301;43.626;10.580;2022-08-11T15:20:28;33.00;82.50
35129;DHT22;21301;43.626;10.580;2022-08-11T15:23:15;33.20;81.80
35129;DHT22;21301;43.626;10.580;2022-08-11T15:28:49;32.60;83.20
35129;DHT22;21301;43.626;10.580;2022-08-11T15:31:35;32.40;85.50
35129;DHT22;21301;43.626;10.580;2022-08-11T15:34:24;32.60;85.40
35129;DHT22;21301;43.626;10.580;2022-08-11T15:37:20;32.50;85.20
35129;DHT22;21301;43.626;10.580;2022-08-11T15:43:34;32.50;85.10
35129;DHT22;21301;43.626;10.580;2022-08-11T15:46:46;32.20;85.50
35129;DHT22;21301;43.626;10.580;2022-08-11T15:49:19;32.40;85.20
35129;DHT22;21301;43.626;10.580;2022-08-11T15:52:12;32.50;85.50
35129;DHT22;21301;43.626;10.580;2022-08-11T15:54:40;32.40;86.90
35129;DHT22;21301;43.626;10.580;2022-08-11T15:57:08;32.30;86.60
35129;DHT22;21301;43.626;10.580;2022-08-11T15:59:56;32.10;87.30
35129;DHT22;21301;43.626;10.580;2022-08-11T16:02:43;32.10;87.70
35129;DHT22;21301;43.626;10.580;2022-08-11T16:05:16;32.20;88.00
35129;DHT22;21301;43.626;10.580;2022-08-11T16:07:43;32.10;86.80
35129;DHT22;21301;43.626;10.580;2022-08-11T16:10:18;31.80;87.40
35129;DHT22;21301;43.626;10.580;2022-08-11T16:12:49;31.90;87.20
35129;DHT22;21301;43.626;10.580;2022-08-11T16:15:54;32.00;87.30
35129;DHT22;21301;43.626;10.580;2022-08-11T16:21:19;31.60;88.50
35129;DHT22;21301;43.626;10.580;2022-08-11T16:23:50;31.80;87.00
35129;DHT22;21301;43.626;10.580;2022-08-11T16:26:19;31.80;86.20
35129;DHT22;21301;43.626;10.580;2022-08-11T16:28:54;31.60;87.00
35129;DHT22;21301;43.626;10.580;2022-08-11T16:31:21;31.50;84.60
35129;DHT22;21301;43.626;10.580;2022-08-11T16:33:50;31.40;83.90
35129;DHT22;21301;43.626;10.580;2022-08-11T16:36:17;31.20;85.00
35129;DHT22;21301;43.626;10.580;2022-08-11T16:39:03;31.20;85.10
35129;DHT22;21301;43.626;10.580;2022-08-11T16:41:32;31.30;85.40
35129;DHT22;21301;43.626;10.580;2022-08-11T16:44:17;31.20;85.10
35129;DHT22;21301;43.626;10.580;2022-08-11T16:47:05;31.30;84.30
35129;DHT22;21301;43.626;10.580;2022-08-11T16:49:32;31.30;84.30
35129;DHT22;21301;43.626;10.580;2022-08-11T16:52:01;31.40;84.10
35129;DHT22;21301;43.626;10.580;2022-08-11T16:54:33;31.40;84.60
35129;DHT22;21301;43.626;10.580;2022-08-11T16:57:05;31.20;85.50
35129;DHT22;21301;43.626;10.580;2022-08-11T16:59:52;31.50;85.00
35129;DHT22;21301;43.626;10.580;2022-08-11T17:02:22;31.30;84.30
35129;DHT22;21301;43.626;10.580;2022-08-11T17:05:16;31.10;85.00
35129;DHT22;21301;43.626;10.580;2022-08-11T17:08:04;31.10;85.20
35129;DHT22;21301;43.626;10.580;2022-08-11T17:10:57;31.10;84.70
35129;DHT22;21301;43.626;10.580;2022-08-11T17:13:56;30.80;85.40
35129;DHT22;21301;43.626;10.580;2022-08-11T17:16:35;30.90;86.00
35129;DHT22;21301;43.626;10.580;2022-08-11T17:19:07;31.10;86.30
35129;DHT22;21301;43.626;10.580;2022-08-11T17:21:51;31.30;85.60
35129;DHT22;21301;43.626;10.580;2022-08-11T17:24:43;31.00;85.60
35129;DHT22;21301;43.626;10.580;2022-08-11T17:27:11;31.10;85.10
35129;DHT22;21301;43.626;10.580;2022-08-11T17:29:53;31.40;84.30
35129;DHT22;21301;43.626;10.580;2022-08-11T17:32:33;31.10;84.10
35129;DHT22;21301;43.626;10.580;2022-08-11T17:35:22;31.00;84.40
35129;DHT22;21301;43.626;10.580;2022-08-11T17:40:26;30.70;85.00
35129;DHT22;21301;43.626;10.580;2022-08-11T17:42:55;30.70;84.70
35129;DHT22;21301;43.626;10.580;2022-08-11T17:45:43;30.70;84.50
35129;DHT22;21301;43.626;10.580;2022-08-11T17:48:31;30.70;85.20
35129;DHT22;21301;43.626;10.580;2022-08-11T17:51:00;30.40;86.10
35129;DHT22;21301;43.626;10.580;2022-08-11T17:53:31;30.20;86.70
35129;DHT22;21301;43.626;10.580;2022-08-11T17:56:18;30.10;87.40
35129;DHT22;21301;43.626;10.580;2022-08-11T17:59:06;30.20;87.60
35129;DHT22;21301;43.626;10.580;2022-08-11T18:01:51;30.20;88.40
35129;DHT22;21301;43.626;10.580;2022-08-11T18:04:20;29.90;90.30
35129;DHT22;21301;43.626;10.580;2022-08-11T18:06:47;29.70;90.80
35129;DHT22;21301;43.626;10.580;2022-08-11T18:09:16;29.60;91.00
35129;DHT22;21301;43.626;10.580;2022-08-11T18:12:04;29.50;91.50
35129;DHT22;21301;43.626;10.580;2022-08-11T18:14:50;29.60;91.50
35129;DHT22;21301;43.626;10.580;2022-08-11T18:17:36;29.70;91.30
35129;DHT22;21301;43.626;10.580;2022-08-11T18:20:22;29.90;91.20
35129;DHT22;21301;43.626;10.580;2022-08-11T18:23:17;29.80;91.50
35129;DHT22;21301;43.626;10.580;2022-08-11T18:26:03;29.60;91.90
35129;DHT22;21301;43.626;10.580;2022-08-11T18:28:53;29.40;92.30
35129;DHT22;21301;43.626;10.580;2022-08-11T18:31:46;29.60;92.30
35129;DHT22;21301;43.626;10.580;2022-08-11T18:34:36;29.70;92.10
35129;DHT22;21301;43.626;10.580;2022-08-11T18:37:25;29.50;92.50
35129;DHT22;21301;43.626;10.580;2022-08-11T18:40:16;29.30;92.80
35129;DHT22;21301;43.626;10.580;2022-08-11T18:43:05;29.30;92.90
35129;DHT22;21301;43.626;10.580;2022-08-11T18:45:54;29.20;92.90
35129;DHT22;21301;43.626;10.580;2022-08-11T18:48:50;29.30;92.70
35129;DHT22;21301;43.626;10.580;2022-08-11T18:51:36;28.90;92.70
35129;DHT22;21301;43.626;10.580;2022-08-11T18:54:23;28.80;92.70
35129;DHT22;21301;43.626;10.580;2022-08-11T18:57:09;28.50;92.60
35129;DHT22;21301;43.626;10.580;2022-08-11T18:59:59;28.50;92.70
35129;DHT22;21301;43.626;10.580;2022-08-11T19:02:45;28.60;92.60
35129;DHT22;21301;43.626;10.580;2022-08-11T19:05:32;28.50;92.60
35129;DHT22;21301;43.626;10.580;2022-08-11T19:08:20;28.60;92.60
35129;DHT22;21301;43.626;10.580;2022-08-11T19:11:07;28.60;92.60
35129;DHT22;21301;43.626;10.580;2022-08-11T19:13:52;28.60;92.60
35129;DHT22;21301;43.626;10.580;2022-08-11T19:16:37;28.80;92.60
35129;DHT22;21301;43.626;10.580;2022-08-11T19:19:24;28.90;92.40
35129;DHT22;21301;43.626;10.580;2022-08-11T19:22:11;28.80;92.60
35129;DHT22;21301;43.626;10.580;2022-08-11T19:24:56;28.90;92.60
35129;DHT22;21301;43.626;10.580;2022-08-11T19:27:42;28.90;92.60
35129;DHT22;21301;43.626;10.580;2022-08-11T19:30:27;28.70;93.00
35129;DHT22;21301;43.626;10.580;2022-08-11T19:33:12;28.30;93.60
35129;DHT22;21301;43.626;10.580;2022-08-11T19:35:58;28.20;94.10
35129;DHT22;21301;43.626;10.580;2022-08-11T19:38:43;28.10;94.50
35129;DHT22;21301;43.626;10.580;2022-08-11T19:41:29;28.10;94.60
35129;DHT22;21301;43.626;10.580;2022-08-11T19:44:14;28.00;94.80
35129;DHT22;21301;43.626;10.580;2022-08-11T19:46:59;28.10;94.90
35129;DHT22;21301;43.626;10.580;2022-08-11T19:49:45;28.00;95.30
35129;DHT22;21301;43.626;10.580;2022-08-11T19:52:30;28.20;95.10
35129;DHT22;21301;43.626;10.580;2022-08-11T19:55:16;28.40;94.70
35129;DHT22;21301;43.626;10.580;2022-08-11T19:58:01;28.30;94.70
35129;DHT22;21301;43.626;10.580;2022-08-11T20:00:47;28.20;94.80
35129;DHT22;21301;43.626;10.580;2022-08-11T20:03:32;28.00;94.90
35129;DHT22;21301;43.626;10.580;2022-08-11T20:06:17;28.00;94.90
35129;DHT22;21301;43.626;10.580;2022-08-11T20:09:03;27.70;95.20
35129;DHT22;21301;43.626;10.580;2022-08-11T20:11:52;27.50;95.60
35129;DHT22;21301;43.626;10.580;2022-08-11T20:14:40;27.20;96.00
35129;DHT22;21301;43.626;10.580;2022-08-11T20:17:29;27.10;96.40
35129;DHT22;21301;43.626;10.580;2022-08-11T20:20:15;27.30;96.40
35129;DHT22;21301;43.626;10.580;2022-08-11T20:23:03;27.10;96.30